sensor_id;sensor_type;location;lat;lon;timestamp;temperature;humidity
19665;DHT22;9980;51.020;7.772;2023-06-26T00:01:38;21.40;86.10
19665;DHT22;9980;51.020;7.772;2023-06-26T00:04:06;21.30;86.30
19665;DHT22;9980;51.020;7.772;2023-06-26T00:06:34;21.30;86.30
19665;DHT22;9980;51.020;7.772;2023-06-26T00:09:01;21.30;86.60
19665;DHT22;9980;51.020;7.772;2023-06-26T00:11:28;21.20;86.90
19665;DHT22;9980;51.020;7.772;2023-06-26T00:13:57;21.20;86.80
19665;DHT22;9980;51.020;7.772;2023-06-26T00:16:27;21.10;87.10
19665;DHT22;9980;51.020;7.772;2023-06-26T00:18:54;21.10;87.50
19665;DHT22;9980;51.020;7.772;2023-06-26T00:21:21;21.00;87.30
19665;DHT22;9980;51.020;7.772;2023-06-26T00:23:48;21.00;87.60
19665;DHT22;9980;51.020;7.772;2023-06-26T00:26:15;21.00;87.80
19665;DHT22;9980;51.020;7.772;2023-06-26T00:28:41;20.90;87.70
19665;DHT22;9980;51.020;7.772;2023-06-26T00:31:08;20.90;88.50
19665;DHT22;9980;51.020;7.772;2023-06-26T00:33:36;20.90;88.80
19665;DHT22;9980;51.020;7.772;2023-06-26T00:36:03;20.80;88.60
19665;DHT22;9980;51.020;7.772;2023-06-26T00:38:30;20.80;88.80
19665;DHT22;9980;51.020;7.772;2023-06-26T00:40:57;20.70;89.00
19665;DHT22;9980;51.020;7.772;2023-06-26T00:43:25;20.70;89.10
19665;DHT22;9980;51.020;7.772;2023-06-26T00:45:52;20.70;89.40
19665;DHT22;9980;51.020;7.772;2023-06-26T00:48:19;20.60;89.50
19665;DHT22;9980;51.020;7.772;2023-06-26T00:50:46;20.60;89.50
19665;DHT22;9980;51.020;7.772;2023-06-26T00:53:13;20.50;89.40
19665;DHT22;9980;51.020;7.772;2023-06-26T00:55:40;20.50;89.70
19665;DHT22;9980;51.020;7.772;2023-06-26T00:58:08;20.40;90.00
19665;DHT22;9980;51.020;7.772;2023-06-26T01:00:36;20.40;90.00
19665;DHT22;9980;51.020;7.772;2023-06-26T01:03:03;20.40;90.10
19665;DHT22;9980;51.020;7.772;2023-06-26T01:05:30;20.30;90.10
19665;DHT22;9980;51.020;7.772;2023-06-26T01:07:58;20.30;90.20
19665;DHT22;9980;51.020;7.772;2023-06-26T01:10:26;20.30;90.20
19665;DHT22;9980;51.020;7.772;2023-06-26T01:12:57;20.30;90.30
19665;DHT22;9980;51.020;7.772;2023-06-26T01:15:24;20.20;90.40
19665;DHT22;9980;51.020;7.772;2023-06-26T01:17:52;20.20;90.50
19665;DHT22;9980;51.020;7.772;2023-06-26T01:20:19;20.10;90.50
19665;DHT22;9980;51.020;7.772;2023-06-26T01:28:35;20.00;90.80
19665;DHT22;9980;51.020;7.772;2023-06-26T01:31:06;20.00;90.90
19665;DHT22;9980;51.020;7.772;2023-06-26T01:33:35;20.00;90.90
19665;DHT22;9980;51.020;7.772;2023-06-26T01:36:03;19.90;90.90
19665;DHT22;9980;51.020;7.772;2023-06-26T01:38:30;19.90;90.90
19665;DHT22;9980;51.020;7.772;2023-06-26T01:40:57;19.80;91.30
19665;DHT22;9980;51.020;7.772;2023-06-26T01:46:25;19.70;91.20
19665;DHT22;9980;51.020;7.772;2023-06-26T01:49:03;19.70;91.20
19665;DHT22;9980;51.020;7.772;2023-06-26T01:51:45;19.70;91.30
19665;DHT22;9980;51.020;7.772;2023-06-26T01:54:18;19.70;91.30
19665;DHT22;9980;51.020;7.772;2023-06-26T01:56:49;19.60;91.30
19665;DHT22;9980;51.020;7.772;2023-06-26T01:59:21;19.60;91.20
19665;DHT22;9980;51.020;7.772;2023-06-26T02:01:49;19.50;91.40
19665;DHT22;9980;51.020;7.772;2023-06-26T02:04:16;19.40;92.80
19665;DHT22;9980;51.020;7.772;2023-06-26T02:06:43;19.40;92.50
19665;DHT22;9980;51.020;7.772;2023-06-26T02:09:10;19.40;92.30
19665;DHT22;9980;51.020;7.772;2023-06-26T02:11:37;19.40;92.10
19665;DHT22;9980;51.020;7.772;2023-06-26T02:14:04;19.40;91.80
19665;DHT22;9980;51.020;7.772;2023-06-26T02:16:31;19.40;92.00
19665;DHT22;9980;51.020;7.772;2023-06-26T02:18:58;19.40;92.30
19665;DHT22;9980;51.020;7.772;2023-06-26T02:21:25;19.40;92.00
19665;DHT22;9980;51.020;7.772;2023-06-26T02:23:55;19.30;92.10
19665;DHT22;9980;51.020;7.772;2023-06-26T02:26:22;19.30;92.10
19665;DHT22;9980;51.020;7.772;2023-06-26T02:28:49;19.30;92.10
19665;DHT22;9980;51.020;7.772;2023-06-26T02:31:16;19.20;92.20
19665;DHT22;9980;51.020;7.772;2023-06-26T02:33:43;19.20;92.10
19665;DHT22;9980;51.020;7.772;2023-06-26T02:36:12;19.20;92.20
19665;DHT22;9980;51.020;7.772;2023-06-26T02:38:39;19.10;92.20
19665;DHT22;9980;51.020;7.772;2023-06-26T02:41:07;19.10;92.10
19665;DHT22;9980;51.020;7.772;2023-06-26T02:43:35;19.10;92.30
19665;DHT22;9980;51.020;7.772;2023-06-26T02:46:02;19.10;92.30
19665;DHT22;9980;51.020;7.772;2023-06-26T02:48:29;19.00;92.30
19665;DHT22;9980;51.020;7.772;2023-06-26T02:50:56;19.00;92.50
19665;DHT22;9980;51.020;7.772;2023-06-26T02:53:27;19.00;92.60
19665;DHT22;9980;51.020;7.772;2023-06-26T02:55:54;19.00;92.60
19665;DHT22;9980;51.020;7.772;2023-06-26T02:58:21;18.90;92.60
19665;DHT22;9980;51.020;7.772;2023-06-26T03:00:48;18.90;92.60
19665;DHT22;9980;51.020;7.772;2023-06-26T03:03:16;18.80;92.80
19665;DHT22;9980;51.020;7.772;2023-06-26T03:05:43;18.80;92.70
19665;DHT22;9980;51.020;7.772;2023-06-26T03:08:11;18.80;92.70
19665;DHT22;9980;51.020;7.772;2023-06-26T03:10:38;18.80;93.00
19665;DHT22;9980;51.020;7.772;2023-06-26T03:13:05;18.80;93.00
19665;DHT22;9980;51.020;7.772;2023-06-26T03:15:33;18.70;92.80
19665;DHT22;9980;51.020;7.772;2023-06-26T03:18:00;18.70;92.80
19665;DHT22;9980;51.020;7.772;2023-06-26T03:20:28;18.70;93.00
19665;DHT22;9980;51.020;7.772;2023-06-26T03:22:57;18.70;92.90
19665;DHT22;9980;51.020;7.772;2023-06-26T03:25:24;18.60;92.90
19665;DHT22;9980;51.020;7.772;2023-06-26T03:28:05;18.60;93.20
19665;DHT22;9980;51.020;7.772;2023-06-26T03:30:33;18.60;92.90
19665;DHT22;9980;51.020;7.772;2023-06-26T03:33:01;18.60;93.10
19665;DHT22;9980;51.020;7.772;2023-06-26T03:35:28;18.60;93.30
19665;DHT22;9980;51.020;7.772;2023-06-26T03:37:55;18.50;93.40
19665;DHT22;9980;51.020;7.772;2023-06-26T03:40:22;18.60;93.30
19665;DHT22;9980;51.020;7.772;2023-06-26T03:42:50;18.50;93.50
19665;DHT22;9980;51.020;7.772;2023-06-26T03:45:17;18.50;93.70
19665;DHT22;9980;51.020;7.772;2023-06-26T03:47:46;18.50;93.50
19665;DHT22;9980;51.020;7.772;2023-06-26T03:50:16;18.50;93.70
19665;DHT22;9980;51.020;7.772;2023-06-26T03:52:44;18.50;93.60
19665;DHT22;9980;51.020;7.772;2023-06-26T03:55:13;18.50;93.70
19665;DHT22;9980;51.020;7.772;2023-06-26T03:57:39;18.50;94.00
19665;DHT22;9980;51.020;7.772;2023-06-26T04:00:09;18.50;94.10
19665;DHT22;9980;51.020;7.772;2023-06-26T04:02:40;18.50;94.20
19665;DHT22;9980;51.020;7.772;2023-06-26T04:05:08;18.50;94.40
19665;DHT22;9980;51.020;7.772;2023-06-26T04:07:34;18.50;94.40
19665;DHT22;9980;51.020;7.772;2023-06-26T04:10:02;18.50;94.60
19665;DHT22;9980;51.020;7.772;2023-06-26T04:12:29;18.50;94.90
19665;DHT22;9980;51.020;7.772;2023-06-26T04:14:56;18.50;94.90
19665;DHT22;9980;51.020;7.772;2023-06-26T04:17:23;18.50;95.00
19665;DHT22;9980;51.020;7.772;2023-06-26T04:19:50;18.50;94.90
19665;DHT22;9980;51.020;7.772;2023-06-26T04:22:17;18.50;95.10
19665;DHT22;9980;51.020;7.772;2023-06-26T04:24:44;18.50;95.10
19665;DHT22;9980;51.020;7.772;2023-06-26T04:27:12;18.50;95.10
19665;DHT22;9980;51.020;7.772;2023-06-26T04:29:40;18.50;95.30
19665;DHT22;9980;51.020;7.772;2023-06-26T04:32:07;18.50;95.50
19665;DHT22;9980;51.020;7.772;2023-06-26T04:34:35;18.60;95.50
19665;DHT22;9980;51.020;7.772;2023-06-26T04:37:03;18.60;95.70
19665;DHT22;9980;51.020;7.772;2023-06-26T04:39:30;18.70;96.20
19665;DHT22;9980;51.020;7.772;2023-06-26T04:41:58;18.70;96.50
19665;DHT22;9980;51.020;7.772;2023-06-26T04:44:25;18.80;96.80
19665;DHT22;9980;51.020;7.772;2023-06-26T04:46:52;18.90;96.90
19665;DHT22;9980;51.020;7.772;2023-06-26T04:49:19;19.10;97.10
19665;DHT22;9980;51.020;7.772;2023-06-26T04:51:46;19.30;97.20
19665;DHT22;9980;51.020;7.772;2023-06-26T04:54:15;19.40;97.30
19665;DHT22;9980;51.020;7.772;2023-06-26T04:56:42;19.70;97.40
19665;DHT22;9980;51.020;7.772;2023-06-26T04:59:10;19.90;97.10
19665;DHT22;9980;51.020;7.772;2023-06-26T05:01:40;20.10;97.00
19665;DHT22;9980;51.020;7.772;2023-06-26T05:04:07;20.30;96.90
19665;DHT22;9980;51.020;7.772;2023-06-26T05:06:34;20.50;96.60
19665;DHT22;9980;51.020;7.772;2023-06-26T05:09:01;20.70;96.60
19665;DHT22;9980;51.020;7.772;2023-06-26T05:11:29;20.80;96.40
19665;DHT22;9980;51.020;7.772;2023-06-26T05:13:55;20.90;96.30
19665;DHT22;9980;51.020;7.772;2023-06-26T05:16:22;21.10;96.20
19665;DHT22;9980;51.020;7.772;2023-06-26T05:18:49;21.20;95.70
19665;DHT22;9980;51.020;7.772;2023-06-26T05:21:17;21.30;95.90
19665;DHT22;9980;51.020;7.772;2023-06-26T05:23:45;21.50;95.40
19665;DHT22;9980;51.020;7.772;2023-06-26T05:26:13;21.60;95.20
19665;DHT22;9980;51.020;7.772;2023-06-26T05:28:41;21.70;95.20
19665;DHT22;9980;51.020;7.772;2023-06-26T05:31:08;21.90;95.20
19665;DHT22;9980;51.020;7.772;2023-06-26T05:33:35;22.00;95.10
19665;DHT22;9980;51.020;7.772;2023-06-26T05:36:04;22.20;95.10
19665;DHT22;9980;51.020;7.772;2023-06-26T05:38:34;22.30;94.80
19665;DHT22;9980;51.020;7.772;2023-06-26T05:41:01;22.40;94.60
19665;DHT22;9980;51.020;7.772;2023-06-26T05:43:28;22.50;94.70
19665;DHT22;9980;51.020;7.772;2023-06-26T05:45:56;22.60;94.40
19665;DHT22;9980;51.020;7.772;2023-06-26T05:48:27;22.80;94.40
19665;DHT22;9980;51.020;7.772;2023-06-26T05:50:54;22.80;94.20
19665;DHT22;9980;51.020;7.772;2023-06-26T05:53:22;22.90;94.30
19665;DHT22;9980;51.020;7.772;2023-06-26T05:55:49;23.00;94.10
19665;DHT22;9980;51.020;7.772;2023-06-26T05:58:17;23.10;94.00
19665;DHT22;9980;51.020;7.772;2023-06-26T06:00:50;23.20;93.90
19665;DHT22;9980;51.020;7.772;2023-06-26T06:03:17;23.30;93.90
19665;DHT22;9980;51.020;7.772;2023-06-26T06:05:44;23.30;93.70
19665;DHT22;9980;51.020;7.772;2023-06-26T06:08:11;23.50;93.80
19665;DHT22;9980;51.020;7.772;2023-06-26T06:10:38;23.50;93.70
19665;DHT22;9980;51.020;7.772;2023-06-26T06:13:06;23.60;93.80
19665;DHT22;9980;51.020;7.772;2023-06-26T06:15:33;23.70;93.50
19665;DHT22;9980;51.020;7.772;2023-06-26T06:18:00;23.80;93.50
19665;DHT22;9980;51.020;7.772;2023-06-26T06:20:27;24.00;93.80
19665;DHT22;9980;51.020;7.772;2023-06-26T06:22:54;24.00;93.40
19665;DHT22;9980;51.020;7.772;2023-06-26T06:25:21;24.10;93.20
19665;DHT22;9980;51.020;7.772;2023-06-26T06:27:48;24.20;92.90
19665;DHT22;9980;51.020;7.772;2023-06-26T06:30:15;24.30;93.10
19665;DHT22;9980;51.020;7.772;2023-06-26T06:32:42;24.40;92.70
19665;DHT22;9980;51.020;7.772;2023-06-26T06:35:09;24.50;93.00
19665;DHT22;9980;51.020;7.772;2023-06-26T06:37:38;24.60;92.80
19665;DHT22;9980;51.020;7.772;2023-06-26T06:40:06;24.70;92.60
19665;DHT22;9980;51.020;7.772;2023-06-26T06:42:33;24.80;92.40
19665;DHT22;9980;51.020;7.772;2023-06-26T06:45:04;24.90;92.60
19665;DHT22;9980;51.020;7.772;2023-06-26T06:47:32;25.00;92.60
19665;DHT22;9980;51.020;7.772;2023-06-26T06:50:00;25.10;92.50
19665;DHT22;9980;51.020;7.772;2023-06-26T06:52:39;25.20;92.60
19665;DHT22;9980;51.020;7.772;2023-06-26T06:55:07;25.30;92.60
19665;DHT22;9980;51.020;7.772;2023-06-26T06:57:36;25.40;92.00
19665;DHT22;9980;51.020;7.772;2023-06-26T07:02:38;25.50;91.70
19665;DHT22;9980;51.020;7.772;2023-06-26T07:05:06;25.50;91.80
19665;DHT22;9980;51.020;7.772;2023-06-26T07:07:35;25.50;91.60
19665;DHT22;9980;51.020;7.772;2023-06-26T07:10:11;25.60;91.60
19665;DHT22;9980;51.020;7.772;2023-06-26T07:12:39;25.60;91.80
19665;DHT22;9980;51.020;7.772;2023-06-26T07:15:06;25.60;91.70
19665;DHT22;9980;51.020;7.772;2023-06-26T07:17:34;25.70;91.70
19665;DHT22;9980;51.020;7.772;2023-06-26T07:20:02;25.80;92.10
19665;DHT22;9980;51.020;7.772;2023-06-26T07:22:33;25.80;92.10
19665;DHT22;9980;51.020;7.772;2023-06-26T07:25:01;25.90;91.60
19665;DHT22;9980;51.020;7.772;2023-06-26T07:27:28;26.00;91.60
19665;DHT22;9980;51.020;7.772;2023-06-26T07:29:55;26.10;91.40
19665;DHT22;9980;51.020;7.772;2023-06-26T07:32:22;26.10;91.20
19665;DHT22;9980;51.020;7.772;2023-06-26T07:34:49;26.20;90.70
19665;DHT22;9980;51.020;7.772;2023-06-26T07:37:16;26.30;91.10
19665;DHT22;9980;51.020;7.772;2023-06-26T07:39:43;26.40;90.90
19665;DHT22;9980;51.020;7.772;2023-06-26T07:42:10;26.50;90.60
19665;DHT22;9980;51.020;7.772;2023-06-26T07:44:37;26.50;90.60
19665;DHT22;9980;51.020;7.772;2023-06-26T07:47:04;26.60;90.50
19665;DHT22;9980;51.020;7.772;2023-06-26T07:49:31;26.60;90.40
19665;DHT22;9980;51.020;7.772;2023-06-26T07:51:58;26.70;90.40
19665;DHT22;9980;51.020;7.772;2023-06-26T07:54:25;26.70;90.40
19665;DHT22;9980;51.020;7.772;2023-06-26T07:57:00;26.70;90.00
19665;DHT22;9980;51.020;7.772;2023-06-26T07:59:29;26.70;90.00
19665;DHT22;9980;51.020;7.772;2023-06-26T08:01:57;26.70;89.60
19665;DHT22;9980;51.020;7.772;2023-06-26T08:04:26;26.70;89.20
19665;DHT22;9980;51.020;7.772;2023-06-26T08:06:56;26.70;89.80
19665;DHT22;9980;51.020;7.772;2023-06-26T08:09:26;26.70;89.60
19665;DHT22;9980;51.020;7.772;2023-06-26T08:11:55;26.70;89.30
19665;DHT22;9980;51.020;7.772;2023-06-26T08:14:23;26.70;89.00
19665;DHT22;9980;51.020;7.772;2023-06-26T08:16:50;26.70;89.20
19665;DHT22;9980;51.020;7.772;2023-06-26T08:19:17;26.60;89.20
19665;DHT22;9980;51.020;7.772;2023-06-26T08:21:45;26.60;90.00
19665;DHT22;9980;51.020;7.772;2023-06-26T08:24:13;26.70;90.00
19665;DHT22;9980;51.020;7.772;2023-06-26T08:26:44;26.70;89.60
19665;DHT22;9980;51.020;7.772;2023-06-26T08:29:11;26.70;89.00
19665;DHT22;9980;51.020;7.772;2023-06-26T08:31:39;26.80;89.20
19665;DHT22;9980;51.020;7.772;2023-06-26T08:34:08;26.90;89.50
19665;DHT22;9980;51.020;7.772;2023-06-26T08:36:36;26.90;89.90
19665;DHT22;9980;51.020;7.772;2023-06-26T08:39:03;27.00;89.90
19665;DHT22;9980;51.020;7.772;2023-06-26T08:41:32;27.10;89.80
19665;DHT22;9980;51.020;7.772;2023-06-26T08:43:59;27.10;90.10
19665;DHT22;9980;51.020;7.772;2023-06-26T08:46:28;27.20;89.30
19665;DHT22;9980;51.020;7.772;2023-06-26T08:48:59;27.30;89.40
19665;DHT22;9980;51.020;7.772;2023-06-26T08:51:29;27.40;89.30
19665;DHT22;9980;51.020;7.772;2023-06-26T08:54:01;27.50;88.70
19665;DHT22;9980;51.020;7.772;2023-06-26T08:56:35;27.60;88.00
19665;DHT22;9980;51.020;7.772;2023-06-26T08:59:07;27.60;87.90
19665;DHT22;9980;51.020;7.772;2023-06-26T09:01:37;27.70;87.80
19665;DHT22;9980;51.020;7.772;2023-06-26T09:04:05;27.70;88.00
19665;DHT22;9980;51.020;7.772;2023-06-26T09:06:33;27.80;88.00
19665;DHT22;9980;51.020;7.772;2023-06-26T09:09:00;27.80;89.60
19665;DHT22;9980;51.020;7.772;2023-06-26T09:11:29;27.90;88.70
19665;DHT22;9980;51.020;7.772;2023-06-26T09:13:56;28.00;87.80
19665;DHT22;9980;51.020;7.772;2023-06-26T09:16:27;28.00;87.40
19665;DHT22;9980;51.020;7.772;2023-06-26T09:18:56;28.10;88.10
19665;DHT22;9980;51.020;7.772;2023-06-26T09:21:23;28.20;86.30
19665;DHT22;9980;51.020;7.772;2023-06-26T09:23:53;28.20;86.60
19665;DHT22;9980;51.020;7.772;2023-06-26T09:26:21;28.30;85.80
19665;DHT22;9980;51.020;7.772;2023-06-26T09:28:49;28.40;85.10
19665;DHT22;9980;51.020;7.772;2023-06-26T09:31:17;28.40;85.10
19665;DHT22;9980;51.020;7.772;2023-06-26T09:34:04;28.50;84.60
19665;DHT22;9980;51.020;7.772;2023-06-26T09:36:32;28.60;85.40
19665;DHT22;9980;51.020;7.772;2023-06-26T09:39:07;28.70;84.50
19665;DHT22;9980;51.020;7.772;2023-06-26T09:41:38;28.80;83.20
19665;DHT22;9980;51.020;7.772;2023-06-26T09:44:06;28.80;83.70
19665;DHT22;9980;51.020;7.772;2023-06-26T09:46:38;28.90;83.20
19665;DHT22;9980;51.020;7.772;2023-06-26T09:49:09;28.90;81.70
19665;DHT22;9980;51.020;7.772;2023-06-26T09:51:39;29.00;82.70
19665;DHT22;9980;51.020;7.772;2023-06-26T09:54:09;29.00;81.50
19665;DHT22;9980;51.020;7.772;2023-06-26T09:56:37;29.00;79.80
19665;DHT22;9980;51.020;7.772;2023-06-26T09:59:05;29.10;79.80
19665;DHT22;9980;51.020;7.772;2023-06-26T10:01:33;29.00;77.50
19665;DHT22;9980;51.020;7.772;2023-06-26T10:04:01;28.90;76.30
19665;DHT22;9980;51.020;7.772;2023-06-26T10:06:37;28.90;75.70
19665;DHT22;9980;51.020;7.772;2023-06-26T10:09:08;28.80;76.50
19665;DHT22;9980;51.020;7.772;2023-06-26T10:11:57;28.80;76.40
19665;DHT22;9980;51.020;7.772;2023-06-26T10:14:33;28.70;77.80
19665;DHT22;9980;51.020;7.772;2023-06-26T10:17:06;28.70;77.30
19665;DHT22;9980;51.020;7.772;2023-06-26T10:19:38;28.70;76.40
19665;DHT22;9980;51.020;7.772;2023-06-26T10:22:09;28.70;76.90
19665;DHT22;9980;51.020;7.772;2023-06-26T10:24:39;28.80;76.80
19665;DHT22;9980;51.020;7.772;2023-06-26T10:27:18;28.80;76.50
19665;DHT22;9980;51.020;7.772;2023-06-26T10:29:51;28.80;77.00
19665;DHT22;9980;51.020;7.772;2023-06-26T10:32:26;28.70;76.80
19665;DHT22;9980;51.020;7.772;2023-06-26T10:34:55;28.70;75.80
19665;DHT22;9980;51.020;7.772;2023-06-26T10:37:44;28.60;76.00
19665;DHT22;9980;51.020;7.772;2023-06-26T10:40:14;28.60;76.30
19665;DHT22;9980;51.020;7.772;2023-06-26T10:42:47;28.60;76.00
19665;DHT22;9980;51.020;7.772;2023-06-26T10:45:19;28.60;75.50
19665;DHT22;9980;51.020;7.772;2023-06-26T10:47:48;28.60;77.10
19665;DHT22;9980;51.020;7.772;2023-06-26T10:50:22;28.70;76.50
19665;DHT22;9980;51.020;7.772;2023-06-26T10:56:05;28.70;73.30
19665;DHT22;9980;51.020;7.772;2023-06-26T11:03:39;28.80;75.10
19665;DHT22;9980;51.020;7.772;2023-06-26T11:08:45;28.90;73.90
19665;DHT22;9980;51.020;7.772;2023-06-26T11:14:24;29.00;73.90
19665;DHT22;9980;51.020;7.772;2023-06-26T11:16:55;29.10;73.30
19665;DHT22;9980;51.020;7.772;2023-06-26T11:19:25;29.20;73.00
19665;DHT22;9980;51.020;7.772;2023-06-26T11:21:59;29.20;71.50
19665;DHT22;9980;51.020;7.772;2023-06-26T11:24:28;29.30;71.40
19665;DHT22;9980;51.020;7.772;2023-06-26T11:27:00;29.40;70.00
19665;DHT22;9980;51.020;7.772;2023-06-26T11:29:29;29.40;72.10
19665;DHT22;9980;51.020;7.772;2023-06-26T11:32:01;29.50;71.20
19665;DHT22;9980;51.020;7.772;2023-06-26T11:34:31;29.60;69.70
19665;DHT22;9980;51.020;7.772;2023-06-26T11:36:59;29.70;69.00
19665;DHT22;9980;51.020;7.772;2023-06-26T11:39:28;29.80;68.60
19665;DHT22;9980;51.020;7.772;2023-06-26T11:41:55;29.80;68.30
19665;DHT22;9980;51.020;7.772;2023-06-26T11:44:23;29.90;66.70
19665;DHT22;9980;51.020;7.772;2023-06-26T11:46:53;30.00;66.80
19665;DHT22;9980;51.020;7.772;2023-06-26T11:49:22;30.00;65.00
19665;DHT22;9980;51.020;7.772;2023-06-26T11:51:52;30.10;65.40
19665;DHT22;9980;51.020;7.772;2023-06-26T11:54:26;30.10;65.10
19665;DHT22;9980;51.020;7.772;2023-06-26T11:56:55;30.20;65.00
19665;DHT22;9980;51.020;7.772;2023-06-26T11:59:31;30.30;63.20
19665;DHT22;9980;51.020;7.772;2023-06-26T12:02:00;30.30;61.90
19665;DHT22;9980;51.020;7.772;2023-06-26T12:04:26;30.30;62.00
19665;DHT22;9980;51.020;7.772;2023-06-26T12:06:54;30.40;60.70
19665;DHT22;9980;51.020;7.772;2023-06-26T12:09:25;30.40;60.10
19665;DHT22;9980;51.020;7.772;2023-06-26T12:11:55;30.50;61.40
19665;DHT22;9980;51.020;7.772;2023-06-26T12:14:23;30.50;61.70
19665;DHT22;9980;51.020;7.772;2023-06-26T12:16:52;30.50;62.70
19665;DHT22;9980;51.020;7.772;2023-06-26T12:19:24;30.60;60.20
19665;DHT22;9980;51.020;7.772;2023-06-26T12:21:55;30.60;59.90
19665;DHT22;9980;51.020;7.772;2023-06-26T12:24:23;30.70;60.30
19665;DHT22;9980;51.020;7.772;2023-06-26T12:26:53;30.70;60.00
19665;DHT22;9980;51.020;7.772;2023-06-26T12:29:32;30.80;59.20
19665;DHT22;9980;51.020;7.772;2023-06-26T12:32:00;30.80;60.10
19665;DHT22;9980;51.020;7.772;2023-06-26T12:34:29;30.80;58.80
19665;DHT22;9980;51.020;7.772;2023-06-26T12:37:08;30.80;58.00
19665;DHT22;9980;51.020;7.772;2023-06-26T12:39:46;30.80;58.70
19665;DHT22;9980;51.020;7.772;2023-06-26T12:42:28;30.80;59.00
19665;DHT22;9980;51.020;7.772;2023-06-26T12:44:59;30.90;60.40
19665;DHT22;9980;51.020;7.772;2023-06-26T12:47:52;30.90;59.30
19665;DHT22;9980;51.020;7.772;2023-06-26T12:50:19;30.90;59.10
19665;DHT22;9980;51.020;7.772;2023-06-26T12:52:46;30.90;59.90
19665;DHT22;9980;51.020;7.772;2023-06-26T12:55:13;30.90;59.20
19665;DHT22;9980;51.020;7.772;2023-06-26T12:57:42;30.80;58.50
19665;DHT22;9980;51.020;7.772;2023-06-26T13:00:09;30.80;59.00
19665;DHT22;9980;51.020;7.772;2023-06-26T13:02:36;30.80;59.30
19665;DHT22;9980;51.020;7.772;2023-06-26T13:05:04;30.80;60.00
19665;DHT22;9980;51.020;7.772;2023-06-26T13:07:31;30.90;58.00
19665;DHT22;9980;51.020;7.772;2023-06-26T13:09:58;30.90;57.70
19665;DHT22;9980;51.020;7.772;2023-06-26T13:12:25;30.90;58.70
19665;DHT22;9980;51.020;7.772;2023-06-26T13:14:52;31.00;57.30
19665;DHT22;9980;51.020;7.772;2023-06-26T13:17:19;31.00;58.10
19665;DHT22;9980;51.020;7.772;2023-06-26T13:19:46;31.00;56.70
19665;DHT22;9980;51.020;7.772;2023-06-26T13:22:13;31.00;57.10
19665;DHT22;9980;51.020;7.772;2023-06-26T13:24:40;30.90;57.40
19665;DHT22;9980;51.020;7.772;2023-06-26T13:27:07;30.90;56.40
19665;DHT22;9980;51.020;7.772;2023-06-26T13:29:34;30.90;56.60
19665;DHT22;9980;51.020;7.772;2023-06-26T13:32:01;30.80;57.20
19665;DHT22;9980;51.020;7.772;2023-06-26T13:34:28;30.80;57.00
19665;DHT22;9980;51.020;7.772;2023-06-26T13:36:56;30.80;57.50
19665;DHT22;9980;51.020;7.772;2023-06-26T13:39:23;30.80;56.10
19665;DHT22;9980;51.020;7.772;2023-06-26T13:41:50;30.80;56.20
19665;DHT22;9980;51.020;7.772;2023-06-26T13:44:17;30.80;56.50
19665;DHT22;9980;51.020;7.772;2023-06-26T13:47:04;30.80;56.40
19665;DHT22;9980;51.020;7.772;2023-06-26T13:49:33;30.80;56.40
19665;DHT22;9980;51.020;7.772;2023-06-26T13:52:00;30.80;56.20
19665;DHT22;9980;51.020;7.772;2023-06-26T13:54:28;30.90;56.20
19665;DHT22;9980;51.020;7.772;2023-06-26T13:56:54;30.90;56.10
19665;DHT22;9980;51.020;7.772;2023-06-26T13:59:24;30.90;56.00
19665;DHT22;9980;51.020;7.772;2023-06-26T14:01:52;30.90;56.10
19665;DHT22;9980;51.020;7.772;2023-06-26T14:04:19;30.90;56.30
19665;DHT22;9980;51.020;7.772;2023-06-26T14:06:46;31.00;56.30
19665;DHT22;9980;51.020;7.772;2023-06-26T14:09:13;31.10;56.20
19665;DHT22;9980;51.020;7.772;2023-06-26T14:11:40;31.10;56.00
19665;DHT22;9980;51.020;7.772;2023-06-26T14:14:07;31.10;55.70
19665;DHT22;9980;51.020;7.772;2023-06-26T14:16:34;31.10;54.30
19665;DHT22;9980;51.020;7.772;2023-06-26T14:19:01;31.10;54.90
19665;DHT22;9980;51.020;7.772;2023-06-26T14:21:28;31.10;54.60
19665;DHT22;9980;51.020;7.772;2023-06-26T14:23:55;31.00;54.30
19665;DHT22;9980;51.020;7.772;2023-06-26T14:26:22;31.00;54.40
19665;DHT22;9980;51.020;7.772;2023-06-26T14:28:49;31.00;53.70
19665;DHT22;9980;51.020;7.772;2023-06-26T14:31:16;30.90;53.30
19665;DHT22;9980;51.020;7.772;2023-06-26T14:33:43;30.90;52.80
19665;DHT22;9980;51.020;7.772;2023-06-26T14:36:10;30.80;53.20
19665;DHT22;9980;51.020;7.772;2023-06-26T14:38:37;30.80;51.90
19665;DHT22;9980;51.020;7.772;2023-06-26T14:41:05;30.60;51.70
19665;DHT22;9980;51.020;7.772;2023-06-26T14:43:32;30.50;52.10
19665;DHT22;9980;51.020;7.772;2023-06-26T14:46:00;30.40;52.50
19665;DHT22;9980;51.020;7.772;2023-06-26T14:48:27;30.40;53.30
19665;DHT22;9980;51.020;7.772;2023-06-26T14:50:56;30.30;52.50
19665;DHT22;9980;51.020;7.772;2023-06-26T14:53:23;30.30;52.00
19665;DHT22;9980;51.020;7.772;2023-06-26T14:55:51;30.30;51.70
19665;DHT22;9980;51.020;7.772;2023-06-26T14:58:18;30.20;50.30
19665;DHT22;9980;51.020;7.772;2023-06-26T15:00:45;30.20;51.00
19665;DHT22;9980;51.020;7.772;2023-06-26T15:03:12;30.10;50.90
19665;DHT22;9980;51.020;7.772;2023-06-26T15:05:39;30.00;50.70
19665;DHT22;9980;51.020;7.772;2023-06-26T15:08:06;29.90;50.70
19665;DHT22;9980;51.020;7.772;2023-06-26T15:10:33;29.80;50.70
19665;DHT22;9980;51.020;7.772;2023-06-26T15:13:00;29.70;50.40
19665;DHT22;9980;51.020;7.772;2023-06-26T15:15:27;29.60;50.70
19665;DHT22;9980;51.020;7.772;2023-06-26T15:17:53;29.50;50.00
19665;DHT22;9980;51.020;7.772;2023-06-26T15:20:21;29.40;50.00
19665;DHT22;9980;51.020;7.772;2023-06-26T15:22:47;29.40;50.80
19665;DHT22;9980;51.020;7.772;2023-06-26T15:25:14;29.20;50.50
19665;DHT22;9980;51.020;7.772;2023-06-26T15:27:41;29.20;50.20
19665;DHT22;9980;51.020;7.772;2023-06-26T15:30:08;29.10;49.90
19665;DHT22;9980;51.020;7.772;2023-06-26T15:32:35;29.00;50.40
19665;DHT22;9980;51.020;7.772;2023-06-26T15:35:03;28.90;50.70
19665;DHT22;9980;51.020;7.772;2023-06-26T15:37:30;28.80;50.50
19665;DHT22;9980;51.020;7.772;2023-06-26T15:39:57;28.70;51.40
19665;DHT22;9980;51.020;7.772;2023-06-26T15:42:27;28.60;51.50
19665;DHT22;9980;51.020;7.772;2023-06-26T15:44:57;28.60;50.80
19665;DHT22;9980;51.020;7.772;2023-06-26T15:47:24;28.50;51.20
19665;DHT22;9980;51.020;7.772;2023-06-26T15:49:51;28.40;51.80
19665;DHT22;9980;51.020;7.772;2023-06-26T15:52:18;28.40;51.50
19665;DHT22;9980;51.020;7.772;2023-06-26T15:54:45;28.40;51.30
19665;DHT22;9980;51.020;7.772;2023-06-26T15:57:12;28.30;50.70
19665;DHT22;9980;51.020;7.772;2023-06-26T15:59:39;28.30;51.60
19665;DHT22;9980;51.020;7.772;2023-06-26T16:02:06;28.30;51.40
19665;DHT22;9980;51.020;7.772;2023-06-26T16:04:33;28.30;51.20
19665;DHT22;9980;51.020;7.772;2023-06-26T16:07:01;28.20;50.70
19665;DHT22;9980;51.020;7.772;2023-06-26T16:09:28;28.20;50.30
19665;DHT22;9980;51.020;7.772;2023-06-26T16:11:55;28.10;51.00
19665;DHT22;9980;51.020;7.772;2023-06-26T16:14:22;28.10;51.20
19665;DHT22;9980;51.020;7.772;2023-06-26T16:16:49;28.10;51.20
19665;DHT22;9980;51.020;7.772;2023-06-26T16:19:16;28.00;50.70